createdAt,value
2019-04-16T00:03:44.427Z,9.98
2019-04-16T00:08:57.261Z,9.83
2019-04-16T00:14:04.494Z,9.83
2019-04-16T00:19:06.866Z,9.64
2019-04-16T00:24:18.553Z,9.64
2019-04-16T00:29:21.597Z,9.42
2019-04-16T00:34:23.669Z,9.41
2019-04-16T00:39:26.499Z,9.40
2019-04-16T00:44:28.829Z,9.15
2019-04-16T00:49:30.873Z,9.06
2019-04-16T00:54:32.919Z,8.95
2019-04-16T00:59:35.033Z,8.93
2019-04-16T01:04:37.154Z,8.90
2019-04-16T01:09:39.238Z,8.91
2019-04-16T01:14:41.663Z,8.79
2019-04-16T01:19:43.710Z,8.87
2019-04-16T01:24:45.809Z,8.71
2019-04-16T01:29:47.851Z,8.57
2019-04-16T01:35:08.448Z,8.62
2019-04-16T01:40:11.719Z,8.42
2019-04-16T01:45:13.826Z,8.49
2019-04-16T01:50:16.160Z,8.55
2019-04-16T01:55:18.583Z,8.53
2019-04-16T02:00:20.757Z,8.40
2019-04-16T02:05:23.282Z,8.40
2019-04-16T02:10:26.023Z,8.47
2019-04-16T02:15:28.167Z,8.47
2019-04-16T02:20:30.183Z,8.49
2019-04-16T02:25:32.293Z,8.59
2019-04-16T02:30:39.390Z,8.43
2019-04-16T02:35:38.713Z,8.34
2019-04-16T02:40:40.732Z,8.34
2019-04-16T02:45:43.479Z,8.33
2019-04-16T02:50:52.327Z,8.22
2019-04-16T02:56:02.409Z,8.17
2019-04-16T03:01:39.616Z,7.98
2019-04-16T03:06:41.638Z,7.98
2019-04-16T03:11:48.003Z,7.94
2019-04-16T03:17:10.670Z,8.08
2019-04-16T03:22:11.158Z,7.77
2019-04-16T03:27:13.364Z,7.90
2019-04-16T03:32:15.776Z,7.83
2019-04-16T03:37:17.955Z,7.65
2019-04-16T03:42:20.367Z,7.67
2019-04-16T03:47:22.527Z,7.56
2019-04-16T03:52:24.599Z,7.44
2019-04-16T03:57:26.667Z,7.35
2019-04-16T04:02:28.685Z,7.32
2019-04-16T04:07:30.769Z,7.16
2019-04-16T04:12:32.876Z,7.17
2019-04-16T04:17:35.765Z,6.96
2019-04-16T04:22:39.319Z,6.95
2019-04-16T04:27:43.570Z,6.91
2019-04-16T04:32:47.510Z,6.98
2019-04-16T04:37:49.772Z,6.83
2019-04-16T04:42:51.827Z,6.93
2019-04-16T04:47:53.885Z,6.83
2019-04-16T04:52:56.072Z,6.82
2019-04-16T04:58:02.490Z,6.80
2019-04-16T05:03:03.131Z,6.90
2019-04-16T05:08:05.251Z,6.87
2019-04-16T05:13:07.503Z,6.82
2019-04-16T05:18:10.795Z,6.84
2019-04-16T05:23:12.942Z,7.05
2019-04-16T05:28:15.378Z,7.07
2019-04-16T05:33:17.763Z,6.93
2019-04-16T05:38:20.437Z,7.13
2019-04-16T05:43:24.142Z,7.22
2019-04-16T05:48:26.418Z,7.19
2019-04-16T05:53:28.690Z,7.27
2019-04-16T05:58:31.611Z,7.51
2019-04-16T06:03:34.330Z,7.57
2019-04-16T06:08:40.661Z,7.76
2019-04-16T06:13:50.113Z,8.17
2019-04-16T06:19:11.588Z,8.17
2019-04-16T06:24:35.767Z,8.11
2019-04-16T06:30:05.425Z,8.32
2019-04-16T06:35:43.474Z,8.46
2019-04-16T06:41:03.419Z,8.46
2019-04-16T06:46:40.606Z,8.55
2019-04-16T06:52:05.180Z,8.76
2019-04-16T06:57:27.007Z,9.01
2019-04-16T07:03:02.119Z,9.01
2019-04-16T07:08:18.433Z,9.17
2019-04-16T07:13:21.111Z,9.15
2019-04-16T07:18:23.226Z,9.35
2019-04-16T07:23:25.807Z,9.41
2019-04-16T07:28:36.571Z,9.56
2019-04-16T07:34:16.770Z,9.95
2019-04-16T07:39:37.194Z,10.02
2019-04-16T07:44:55.964Z,10.18
2019-04-16T07:50:02.525Z,10.29
2019-04-16T07:55:19.365Z,10.50
2019-04-16T08:00:21.853Z,10.77
2019-04-16T08:05:23.958Z,10.83
2019-04-16T08:10:26.928Z,11.14
2019-04-16T08:15:29.394Z,11.39
2019-04-16T08:20:31.953Z,11.24
2019-04-16T08:25:34.970Z,11.50
2019-04-16T08:30:39.524Z,11.64
2019-04-16T08:35:41.505Z,11.76
2019-04-16T08:40:46.246Z,11.82
2019-04-16T08:45:49.288Z,12.19
2019-04-16T08:50:51.474Z,12.22
2019-04-16T08:55:53.634Z,12.16
2019-04-16T09:00:55.889Z,12.42
2019-04-16T09:06:03.597Z,12.61
2019-04-16T09:11:04.891Z,12.87
2019-04-16T09:16:10.282Z,12.83
2019-04-16T09:21:13.662Z,12.79
2019-04-16T09:26:34.627Z,13.17
2019-04-16T09:31:55.013Z,13.23
2019-04-16T09:37:13.324Z,13.45
2019-04-16T09:42:15.454Z,13.60
2019-04-16T09:47:17.520Z,13.40
2019-04-16T09:52:23.203Z,13.91
2019-04-16T09:57:24.511Z,14.30
2019-04-16T10:02:30.070Z,14.10
2019-04-16T10:07:32.188Z,14.29
2019-04-16T10:12:34.345Z,14.30
2019-04-16T10:17:36.447Z,14.46
2019-04-16T10:22:38.684Z,14.54
2019-04-16T10:27:56.722Z,14.91
2019-04-16T10:32:58.927Z,14.91
2019-04-16T10:38:08.172Z,15.48
2019-04-16T10:43:43.663Z,15.53
2019-04-16T10:48:51.306Z,15.17
2019-04-16T10:53:59.945Z,15.83
2019-04-16T10:59:24.875Z,16.03
2019-04-16T11:04:47.759Z,16.14
2019-04-16T11:09:50.622Z,16.16
2019-04-16T11:14:52.812Z,16.92
2019-04-16T11:19:55.059Z,16.69
2019-04-16T11:24:57.166Z,16.81
2019-04-16T11:29:59.208Z,17.12
2019-04-16T11:35:01.320Z,17.01
2019-04-16T11:40:04.567Z,17.28
2019-04-16T11:45:06.973Z,17.52
2019-04-16T11:50:09.126Z,17.48
2019-04-16T11:55:11.372Z,17.70
2019-04-16T12:00:18.610Z,17.80
2019-04-16T12:05:29.504Z,17.94
2019-04-16T12:11:00.209Z,17.95
2019-04-16T12:16:21.275Z,18.00
2019-04-16T12:21:43.210Z,18.02
2019-04-16T12:27:11.322Z,18.14
2019-04-16T12:32:51.436Z,17.98
2019-04-16T12:38:25.056Z,18.05
2019-04-16T12:43:32.858Z,18.10
2019-04-16T12:48:52.921Z,18.36
2019-04-16T12:54:14.272Z,18.03
2019-04-16T12:59:22.996Z,18.36
2019-04-16T13:04:51.654Z,18.73
2019-04-16T13:10:11.223Z,18.46
2019-04-16T13:15:36.845Z,18.71
2019-04-16T13:21:10.797Z,19.19
2019-04-16T13:26:37.539Z,19.28
2019-04-16T13:31:39.846Z,19.07
2019-04-16T13:36:42.268Z,19.54
2019-04-16T13:41:44.322Z,19.24
2019-04-16T13:46:46.415Z,18.98
2019-04-16T13:51:48.502Z,18.96
2019-04-16T13:56:56.074Z,18.97
2019-04-16T14:02:29.285Z,19.00
2019-04-16T14:07:33.349Z,18.86
2019-04-16T14:12:42.399Z,18.75
2019-04-16T14:17:51.732Z,18.87
2019-04-16T14:22:43.826Z,19.00
2019-04-16T14:27:45.910Z,18.68
2019-04-16T14:32:48.844Z,18.96
2019-04-16T14:37:50.976Z,19.03
2019-04-16T14:42:57.415Z,18.22
2019-04-16T14:47:57.799Z,18.12
2019-04-16T14:52:59.833Z,18.06
2019-04-16T14:58:04.312Z,18.36
2019-04-16T15:03:18.161Z,18.35
2019-04-16T15:08:33.735Z,18.48
2019-04-16T15:13:47.156Z,19.29
2019-04-16T15:19:07.551Z,20.31
2019-04-16T15:24:38.600Z,19.44
2019-04-16T15:29:58.168Z,18.57
2019-04-16T15:35:00.566Z,18.95
2019-04-16T15:40:08.061Z,20.12
2019-04-16T15:45:18.008Z,20.46
2019-04-16T15:50:35.091Z,21.14
2019-04-16T15:55:48.746Z,20.35
2019-04-16T16:01:15.849Z,19.85
2019-04-16T16:06:21.549Z,20.03
2019-04-16T16:11:48.007Z,19.82
2019-04-16T16:16:50.769Z,19.86
2019-04-16T16:21:53.634Z,19.73
2019-04-16T16:26:55.646Z,19.96
2019-04-16T16:31:57.673Z,19.71
2019-04-16T16:37:00.152Z,19.73
2019-04-16T16:42:02.213Z,18.83
2019-04-16T16:47:39.558Z,18.64
2019-04-16T16:52:59.890Z,18.47
2019-04-16T16:58:25.090Z,18.35
2019-04-16T17:03:56.405Z,18.27
2019-04-16T17:08:58.831Z,18.15
2019-04-16T17:14:02.000Z,17.91
2019-04-16T17:19:04.902Z,17.72
2019-04-16T17:24:06.979Z,17.55
2019-04-16T17:29:09.228Z,17.45
2019-04-16T17:34:11.464Z,17.37
2019-04-16T17:39:28.432Z,17.23
2019-04-16T17:44:51.006Z,17.14
2019-04-16T17:50:02.506Z,16.99
2019-04-16T17:55:07.178Z,16.91
2019-04-16T18:00:42.029Z,16.92
2019-04-16T18:06:02.235Z,16.85
2019-04-16T18:11:10.835Z,16.67
2019-04-16T18:16:31.469Z,16.68
2019-04-16T18:21:55.931Z,16.54
2019-04-16T18:27:16.849Z,16.48
2019-04-16T18:32:41.305Z,16.43
2019-04-16T18:37:59.053Z,16.43
2019-04-16T18:43:10.590Z,16.48
2019-04-16T18:48:17.287Z,16.40
2019-04-16T18:53:19.913Z,16.19
2019-04-16T18:58:22.228Z,15.86
2019-04-16T19:03:24.321Z,15.72
2019-04-16T19:08:40.903Z,15.66
2019-04-16T19:13:31.555Z,15.57
2019-04-16T19:18:33.681Z,15.50
2019-04-16T19:23:35.837Z,15.41
2019-04-16T19:28:39.591Z,15.33
2019-04-16T19:33:42.138Z,15.26
2019-04-16T19:38:45.368Z,15.15
2019-04-16T19:43:48.981Z,15.15
2019-04-16T19:48:51.098Z,15.12
2019-04-16T19:53:53.201Z,15.07
2019-04-16T19:58:55.354Z,14.96
2019-04-16T20:03:57.440Z,14.91
2019-04-16T20:08:59.566Z,14.89
2019-04-16T20:14:03.499Z,14.86
2019-04-16T20:19:05.809Z,14.79
2019-04-16T20:24:07.921Z,14.70
2019-04-16T20:29:10.071Z,14.70
2019-04-16T20:34:13.200Z,14.64
2019-04-16T20:39:15.459Z,14.60
2019-04-16T20:44:18.316Z,14.61
2019-04-16T20:49:21.162Z,14.53
2019-04-16T20:54:23.540Z,14.58
2019-04-16T20:59:32.780Z,14.43
2019-04-16T21:04:34.892Z,14.27
2019-04-16T21:09:37.013Z,14.09
2019-04-16T21:14:39.302Z,13.94
2019-04-16T21:19:46.501Z,13.73
2019-04-16T21:24:48.682Z,13.86
2019-04-16T21:29:50.991Z,13.72
2019-04-16T21:34:58.644Z,13.67
2019-04-16T21:40:00.421Z,13.68
2019-04-16T21:46:00.519Z,13.72
2019-04-16T21:51:02.615Z,13.65
2019-04-16T21:56:07.833Z,13.57
2019-04-16T22:01:35.750Z,13.51
2019-04-16T22:06:36.895Z,13.37
2019-04-16T22:11:43.256Z,13.48
2019-04-16T22:16:42.895Z,13.41
2019-04-16T22:21:44.974Z,13.31
2019-04-16T22:26:47.011Z,13.34
2019-04-16T22:31:49.326Z,13.30
2019-04-16T22:36:51.363Z,13.35
2019-04-16T22:42:05.034Z,13.30
2019-04-16T22:47:13.316Z,13.31
2019-04-16T22:52:15.459Z,13.23
2019-04-16T22:57:17.475Z,13.32
2019-04-16T23:02:22.142Z,13.27
2019-04-16T23:07:24.324Z,13.27
2019-04-16T23:12:28.067Z,13.28
2019-04-16T23:17:30.272Z,13.27
2019-04-16T23:22:33.569Z,13.09
2019-04-16T23:27:37.496Z,13.10
2019-04-16T23:32:40.135Z,13.11
2019-04-16T23:37:42.184Z,13.10
2019-04-16T23:43:06.993Z,13.07
2019-04-16T23:48:31.658Z,13.04
2019-04-16T23:53:59.570Z,12.99
2019-04-16T23:59:09.112Z,12.92
